sensor_id;sensor_type;location;lat;lon;timestamp;pressure;altitude;pressure_sealevel;temperature;humidity
9139;BME280;4604;48.616;9.548;2023-07-09T00:00:52;97226.88;;;22.44;62.18
9139;BME280;4604;48.616;9.548;2023-07-09T00:03:19;97233.06;;;22.44;62.50
9139;BME280;4604;48.616;9.548;2023-07-09T00:05:48;97227.28;;;22.34;63.38
9139;BME280;4604;48.616;9.548;2023-07-09T00:08:24;97226.47;;;22.34;63.31
9139;BME280;4604;48.616;9.548;2023-07-09T00:10:52;97229.34;;;22.39;62.79
9139;BME280;4604;48.616;9.548;2023-07-09T00:13:19;97238.44;;;22.38;63.20
9139;BME280;4604;48.616;9.548;2023-07-09T00:15:47;97226.66;;;22.32;62.73
9139;BME280;4604;48.616;9.548;2023-07-09T00:18:14;97228.53;;;22.32;63.01
9139;BME280;4604;48.616;9.548;2023-07-09T00:20:41;97232.66;;;22.34;62.66
9139;BME280;4604;48.616;9.548;2023-07-09T00:23:08;97229.78;;;22.29;62.47
9139;BME280;4604;48.616;9.548;2023-07-09T00:25:36;97245.06;;;22.35;62.58
9139;BME280;4604;48.616;9.548;2023-07-09T00:28:03;97235.75;;;22.25;62.76
9139;BME280;4604;48.616;9.548;2023-07-09T00:30:30;97237.78;;;22.16;62.96
9139;BME280;4604;48.616;9.548;2023-07-09T00:32:58;97239.66;;;22.15;62.84
9139;BME280;4604;48.616;9.548;2023-07-09T00:35:24;97235.50;;;22.13;63.39
9139;BME280;4604;48.616;9.548;2023-07-09T00:37:51;97231.78;;;22.07;63.48
9139;BME280;4604;48.616;9.548;2023-07-09T00:40:20;97242.91;;;22.04;63.77
9139;BME280;4604;48.616;9.548;2023-07-09T00:42:49;97249.75;;;22.00;64.43
9139;BME280;4604;48.616;9.548;2023-07-09T00:45:20;97250.56;;;21.94;64.51
9139;BME280;4604;48.616;9.548;2023-07-09T00:47:53;97247.47;;;21.90;64.80
9139;BME280;4604;48.616;9.548;2023-07-09T00:50:31;97252.41;;;21.87;65.10
9139;BME280;4604;48.616;9.548;2023-07-09T00:53:03;97248.47;;;21.83;65.24
9139;BME280;4604;48.616;9.548;2023-07-09T00:55:37;97249.09;;;21.78;65.55
9139;BME280;4604;48.616;9.548;2023-07-09T00:58:07;97242.03;;;21.77;65.36
9139;BME280;4604;48.616;9.548;2023-07-09T01:00:40;97244.50;;;21.72;65.68
9139;BME280;4604;48.616;9.548;2023-07-09T01:03:16;97253.16;;;21.67;66.04
9139;BME280;4604;48.616;9.548;2023-07-09T01:05:47;97249.66;;;21.67;66.19
9139;BME280;4604;48.616;9.548;2023-07-09T01:08:17;97246.75;;;21.62;66.37
9139;BME280;4604;48.616;9.548;2023-07-09T01:10:44;97258.09;;;21.57;66.41
9139;BME280;4604;48.616;9.548;2023-07-09T01:13:11;97249.00;;;21.51;66.67
9139;BME280;4604;48.616;9.548;2023-07-09T01:15:41;97244.22;;;21.47;66.84
9139;BME280;4604;48.616;9.548;2023-07-09T01:18:08;97248.97;;;21.45;67.21
9139;BME280;4604;48.616;9.548;2023-07-09T01:20:38;97249.47;;;21.33;68.10
9139;BME280;4604;48.616;9.548;2023-07-09T01:23:07;97250.34;;;21.34;68.18
9139;BME280;4604;48.616;9.548;2023-07-09T01:25:43;97247.81;;;21.26;68.94
9139;BME280;4604;48.616;9.548;2023-07-09T01:28:11;97255.44;;;21.22;69.10
9139;BME280;4604;48.616;9.548;2023-07-09T01:30:40;97255.22;;;21.24;69.02
9139;BME280;4604;48.616;9.548;2023-07-09T01:33:07;97255.22;;;21.17;69.29
9139;BME280;4604;48.616;9.548;2023-07-09T01:35:37;97255.78;;;21.12;69.33
9139;BME280;4604;48.616;9.548;2023-07-09T01:38:08;97262.63;;;21.15;69.14
9139;BME280;4604;48.616;9.548;2023-07-09T01:40:35;97255.22;;;21.17;68.97
9139;BME280;4604;48.616;9.548;2023-07-09T01:43:03;97251.47;;;21.18;68.84
9139;BME280;4604;48.616;9.548;2023-07-09T01:45:32;97253.34;;;21.17;68.68
9139;BME280;4604;48.616;9.548;2023-07-09T01:47:59;97256.66;;;21.20;68.63
9139;BME280;4604;48.616;9.548;2023-07-09T01:50:26;97250.25;;;21.21;68.63
9139;BME280;4604;48.616;9.548;2023-07-09T01:52:53;97250.84;;;21.16;68.76
9139;BME280;4604;48.616;9.548;2023-07-09T01:55:23;97248.16;;;21.09;68.98
9139;BME280;4604;48.616;9.548;2023-07-09T01:57:50;97248.75;;;21.05;69.43
9139;BME280;4604;48.616;9.548;2023-07-09T02:00:17;97252.84;;;21.01;69.42
9139;BME280;4604;48.616;9.548;2023-07-09T02:02:45;97256.69;;;20.91;70.27
9139;BME280;4604;48.616;9.548;2023-07-09T02:05:15;97249.56;;;20.77;71.58
9139;BME280;4604;48.616;9.548;2023-07-09T02:07:41;97245.00;;;20.71;72.04
9139;BME280;4604;48.616;9.548;2023-07-09T02:10:09;97245.81;;;20.71;72.03
9139;BME280;4604;48.616;9.548;2023-07-09T02:12:38;97247.63;;;20.64;72.69
9139;BME280;4604;48.616;9.548;2023-07-09T02:15:05;97254.03;;;20.63;72.81
9139;BME280;4604;48.616;9.548;2023-07-09T02:17:32;97253.19;;;20.63;72.34
9139;BME280;4604;48.616;9.548;2023-07-09T02:19:59;97259.63;;;20.68;72.13
9139;BME280;4604;48.616;9.548;2023-07-09T02:22:25;97264.38;;;20.66;72.10
9139;BME280;4604;48.616;9.548;2023-07-09T02:24:52;97254.63;;;20.65;72.24
9139;BME280;4604;48.616;9.548;2023-07-09T02:27:20;97254.91;;;20.70;71.64
9139;BME280;4604;48.616;9.548;2023-07-09T02:29:48;97249.09;;;20.67;71.70
9139;BME280;4604;48.616;9.548;2023-07-09T02:32:18;97257.19;;;20.73;71.26
9139;BME280;4604;48.616;9.548;2023-07-09T02:34:45;97259.06;;;20.73;71.14
9139;BME280;4604;48.616;9.548;2023-07-09T02:37:15;97253.19;;;20.63;71.70
9139;BME280;4604;48.616;9.548;2023-07-09T02:39:41;97265.59;;;20.64;72.14
9139;BME280;4604;48.616;9.548;2023-07-09T02:42:09;97266.97;;;20.60;72.27
9139;BME280;4604;48.616;9.548;2023-07-09T02:44:36;97267.56;;;20.55;72.78
9139;BME280;4604;48.616;9.548;2023-07-09T02:47:04;97263.78;;;20.49;73.02
9139;BME280;4604;48.616;9.548;2023-07-09T02:49:31;97273.63;;;20.42;73.32
9139;BME280;4604;48.616;9.548;2023-07-09T02:51:58;97271.13;;;20.41;73.38
9139;BME280;4604;48.616;9.548;2023-07-09T02:54:24;97277.09;;;20.36;73.68
9139;BME280;4604;48.616;9.548;2023-07-09T02:56:51;97277.28;;;20.35;73.71
9139;BME280;4604;48.616;9.548;2023-07-09T02:59:18;97275.75;;;20.25;74.38
9139;BME280;4604;48.616;9.548;2023-07-09T03:01:45;97273.38;;;20.16;74.85
9139;BME280;4604;48.616;9.548;2023-07-09T03:04:14;97282.44;;;20.15;75.12
9139;BME280;4604;48.616;9.548;2023-07-09T03:06:41;97278.91;;;20.14;75.04
9139;BME280;4604;48.616;9.548;2023-07-09T03:09:08;97287.59;;;20.16;74.86
9139;BME280;4604;48.616;9.548;2023-07-09T03:11:35;97286.94;;;20.14;75.21
9139;BME280;4604;48.616;9.548;2023-07-09T03:14:02;97282.81;;;20.12;74.86
9139;BME280;4604;48.616;9.548;2023-07-09T03:16:31;97284.03;;;20.09;75.41
9139;BME280;4604;48.616;9.548;2023-07-09T03:18:59;97283.84;;;20.10;75.25
9139;BME280;4604;48.616;9.548;2023-07-09T03:21:28;97282.56;;;20.06;75.45
9139;BME280;4604;48.616;9.548;2023-07-09T03:23:55;97288.31;;;20.03;75.52
9139;BME280;4604;48.616;9.548;2023-07-09T03:26:21;97292.09;;;19.94;76.29
9139;BME280;4604;48.616;9.548;2023-07-09T03:28:48;97298.25;;;19.88;76.69
9139;BME280;4604;48.616;9.548;2023-07-09T03:31:15;97295.09;;;19.84;76.95
9139;BME280;4604;48.616;9.548;2023-07-09T03:33:41;97290.94;;;19.82;76.97
9139;BME280;4604;48.616;9.548;2023-07-09T03:36:08;97280.09;;;19.69;77.17
9139;BME280;4604;48.616;9.548;2023-07-09T03:38:36;97288.78;;;19.71;77.13
9139;BME280;4604;48.616;9.548;2023-07-09T03:41:03;97292.38;;;19.78;76.86
9139;BME280;4604;48.616;9.548;2023-07-09T03:43:29;97304.16;;;19.83;76.75
9139;BME280;4604;48.616;9.548;2023-07-09T03:45:56;97298.81;;;19.83;76.74
9139;BME280;4604;48.616;9.548;2023-07-09T03:48:23;97298.41;;;19.86;76.49
9139;BME280;4604;48.616;9.548;2023-07-09T03:50:50;97302.78;;;19.87;76.86
9139;BME280;4604;48.616;9.548;2023-07-09T03:53:17;97303.22;;;19.91;76.76
9139;BME280;4604;48.616;9.548;2023-07-09T03:55:51;97296.81;;;19.92;76.79
9139;BME280;4604;48.616;9.548;2023-07-09T03:58:18;97297.41;;;19.87;76.98
9139;BME280;4604;48.616;9.548;2023-07-09T04:00:45;97303.13;;;19.84;77.30
9139;BME280;4604;48.616;9.548;2023-07-09T04:03:11;97304.16;;;19.83;77.76
9139;BME280;4604;48.616;9.548;2023-07-09T04:05:38;97297.72;;;19.78;78.19
9139;BME280;4604;48.616;9.548;2023-07-09T04:08:05;97292.97;;;19.80;78.07
9139;BME280;4604;48.616;9.548;2023-07-09T04:10:31;97302.47;;;19.82;78.42
9139;BME280;4604;48.616;9.548;2023-07-09T04:13:00;97302.31;;;19.84;78.29
9139;BME280;4604;48.616;9.548;2023-07-09T04:15:27;97297.50;;;19.79;78.68
9139;BME280;4604;48.616;9.548;2023-07-09T04:17:54;97297.97;;;19.83;78.47
9139;BME280;4604;48.616;9.548;2023-07-09T04:20:21;97303.59;;;19.88;78.27
9139;BME280;4604;48.616;9.548;2023-07-09T04:22:48;97293.78;;;19.95;78.04
9139;BME280;4604;48.616;9.548;2023-07-09T04:25:15;97294.44;;;19.97;77.73
9139;BME280;4604;48.616;9.548;2023-07-09T04:27:42;97294.69;;;20.02;77.36
9139;BME280;4604;48.616;9.548;2023-07-09T04:30:12;97290.50;;;20.15;76.69
9139;BME280;4604;48.616;9.548;2023-07-09T04:32:40;97304.53;;;20.17;77.28
9139;BME280;4604;48.616;9.548;2023-07-09T04:35:08;97296.94;;;20.20;77.53
9139;BME280;4604;48.616;9.548;2023-07-09T04:37:36;97302.38;;;20.27;77.84
9139;BME280;4604;48.616;9.548;2023-07-09T04:40:04;97307.97;;;20.32;78.35
9139;BME280;4604;48.616;9.548;2023-07-09T04:42:32;97315.63;;;20.35;78.05
9139;BME280;4604;48.616;9.548;2023-07-09T04:44:59;97313.00;;;20.42;77.82
9139;BME280;4604;48.616;9.548;2023-07-09T04:47:27;97318.81;;;20.45;78.06
9139;BME280;4604;48.616;9.548;2023-07-09T04:49:53;97310.47;;;20.55;77.47
9139;BME280;4604;48.616;9.548;2023-07-09T04:52:20;97306.41;;;20.59;77.52
9139;BME280;4604;48.616;9.548;2023-07-09T04:54:47;97310.44;;;20.77;77.13
9139;BME280;4604;48.616;9.548;2023-07-09T04:57:16;97317.34;;;20.86;76.99
9139;BME280;4604;48.616;9.548;2023-07-09T04:59:42;97319.88;;;20.94;77.09
9139;BME280;4604;48.616;9.548;2023-07-09T05:02:09;97314.56;;;21.01;76.15
9139;BME280;4604;48.616;9.548;2023-07-09T05:04:37;97318.59;;;21.18;75.55
9139;BME280;4604;48.616;9.548;2023-07-09T05:07:04;97322.16;;;21.25;74.96
9139;BME280;4604;48.616;9.548;2023-07-09T05:09:31;97316.00;;;21.31;74.51
9139;BME280;4604;48.616;9.548;2023-07-09T05:11:57;97319.81;;;21.44;74.23
9139;BME280;4604;48.616;9.548;2023-07-09T05:14:26;97323.38;;;21.57;74.19
9139;BME280;4604;48.616;9.548;2023-07-09T05:16:52;97319.97;;;21.70;73.71
9139;BME280;4604;48.616;9.548;2023-07-09T05:19:19;97313.34;;;21.79;73.99
9139;BME280;4604;48.616;9.548;2023-07-09T05:21:47;97321.25;;;21.94;73.70
9139;BME280;4604;48.616;9.548;2023-07-09T05:24:14;97321.91;;;22.03;73.25
9139;BME280;4604;48.616;9.548;2023-07-09T05:26:40;97321.94;;;22.16;72.33
9139;BME280;4604;48.616;9.548;2023-07-09T05:29:07;97316.22;;;22.26;71.22
9139;BME280;4604;48.616;9.548;2023-07-09T05:31:34;97321.41;;;22.41;70.71
9139;BME280;4604;48.616;9.548;2023-07-09T05:34:01;97326.38;;;22.51;70.11
9139;BME280;4604;48.616;9.548;2023-07-09T05:36:28;97324.75;;;22.56;70.07
9139;BME280;4604;48.616;9.548;2023-07-09T05:38:57;97328.66;;;22.60;70.20
9139;BME280;4604;48.616;9.548;2023-07-09T05:41:23;97328.28;;;22.63;70.54
9139;BME280;4604;48.616;9.548;2023-07-09T05:43:50;97326.00;;;22.67;71.54
9139;BME280;4604;48.616;9.548;2023-07-09T05:46:18;97322.28;;;22.68;72.43
9139;BME280;4604;48.616;9.548;2023-07-09T05:48:45;97323.50;;;22.72;71.87
9139;BME280;4604;48.616;9.548;2023-07-09T05:51:11;97326.81;;;22.68;71.83
9139;BME280;4604;48.616;9.548;2023-07-09T05:53:38;97337.38;;;22.62;71.94
9139;BME280;4604;48.616;9.548;2023-07-09T05:56:06;97341.72;;;22.63;70.79
9139;BME280;4604;48.616;9.548;2023-07-09T05:58:34;97332.63;;;22.71;70.05
9139;BME280;4604;48.616;9.548;2023-07-09T06:01:00;97342.16;;;22.80;69.77
9139;BME280;4604;48.616;9.548;2023-07-09T06:03:29;97344.84;;;22.80;69.89
9139;BME280;4604;48.616;9.548;2023-07-09T06:05:57;97347.53;;;22.87;70.96
9139;BME280;4604;48.616;9.548;2023-07-09T06:08:25;97351.91;;;22.95;71.00
9139;BME280;4604;48.616;9.548;2023-07-09T06:10:54;97353.78;;;23.07;70.95
9139;BME280;4604;48.616;9.548;2023-07-09T06:13:22;97359.97;;;23.28;70.03
9139;BME280;4604;48.616;9.548;2023-07-09T06:15:50;97356.03;;;23.31;69.96
9139;BME280;4604;48.616;9.548;2023-07-09T06:18:17;97352.47;;;23.43;68.49
9139;BME280;4604;48.616;9.548;2023-07-09T06:20:47;97354.75;;;23.46;67.81
9139;BME280;4604;48.616;9.548;2023-07-09T06:23:13;97349.13;;;23.55;67.08
9139;BME280;4604;48.616;9.548;2023-07-09T06:25:40;97356.16;;;23.62;65.03
9139;BME280;4604;48.616;9.548;2023-07-09T06:28:07;97359.91;;;23.68;64.56
9139;BME280;4604;48.616;9.548;2023-07-09T06:30:35;97350.31;;;23.72;61.09
9139;BME280;4604;48.616;9.548;2023-07-09T06:33:02;97349.91;;;23.82;60.51
9139;BME280;4604;48.616;9.548;2023-07-09T06:35:29;97356.91;;;23.96;60.34
9139;BME280;4604;48.616;9.548;2023-07-09T06:37:55;97359.31;;;24.11;60.04
9139;BME280;4604;48.616;9.548;2023-07-09T06:40:22;97358.66;;;24.22;60.58
9139;BME280;4604;48.616;9.548;2023-07-09T06:42:49;97350.72;;;24.34;60.35
9139;BME280;4604;48.616;9.548;2023-07-09T06:45:16;97355.41;;;24.45;59.41
9139;BME280;4604;48.616;9.548;2023-07-09T06:47:44;97354.53;;;24.58;58.58
9139;BME280;4604;48.616;9.548;2023-07-09T06:50:11;97351.75;;;24.71;58.07
9139;BME280;4604;48.616;9.548;2023-07-09T06:52:38;97363.28;;;24.85;56.97
9139;BME280;4604;48.616;9.548;2023-07-09T06:55:05;97362.19;;;24.93;56.72
9139;BME280;4604;48.616;9.548;2023-07-09T06:57:32;97360.63;;;25.04;56.29
9139;BME280;4604;48.616;9.548;2023-07-09T06:59:58;97358.25;;;25.14;56.01
9139;BME280;4604;48.616;9.548;2023-07-09T07:02:25;97352.97;;;25.26;55.69
9139;BME280;4604;48.616;9.548;2023-07-09T07:04:53;97358.47;;;25.37;55.46
9139;BME280;4604;48.616;9.548;2023-07-09T07:07:20;97359.84;;;25.47;53.99
9139;BME280;4604;48.616;9.548;2023-07-09T07:09:47;97354.97;;;25.55;53.51
9139;BME280;4604;48.616;9.548;2023-07-09T07:12:22;97355.28;;;25.66;53.50
9139;BME280;4604;48.616;9.548;2023-07-09T07:14:49;97353.09;;;25.74;53.53
9139;BME280;4604;48.616;9.548;2023-07-09T07:17:16;97355.91;;;25.86;53.64
9139;BME280;4604;48.616;9.548;2023-07-09T07:19:43;97353.63;;;26.01;53.50
9139;BME280;4604;48.616;9.548;2023-07-09T07:22:11;97358.59;;;26.04;51.31
9139;BME280;4604;48.616;9.548;2023-07-09T07:24:38;97345.34;;;26.15;51.60
9139;BME280;4604;48.616;9.548;2023-07-09T07:27:05;97347.56;;;26.36;51.67
9139;BME280;4604;48.616;9.548;2023-07-09T07:29:32;97357.84;;;26.46;51.62
9139;BME280;4604;48.616;9.548;2023-07-09T07:34:33;97354.53;;;26.74;50.88
9139;BME280;4604;48.616;9.548;2023-07-09T07:36:59;97356.66;;;26.84;51.23
9139;BME280;4604;48.616;9.548;2023-07-09T07:39:27;97351.84;;;26.86;50.01
9139;BME280;4604;48.616;9.548;2023-07-09T07:41:54;97341.97;;;27.03;50.10
9139;BME280;4604;48.616;9.548;2023-07-09T07:44:21;97343.75;;;27.09;50.05
9139;BME280;4604;48.616;9.548;2023-07-09T07:46:48;97339.31;;;27.27;48.84
9139;BME280;4604;48.616;9.548;2023-07-09T07:49:15;97342.97;;;27.44;47.19
9139;BME280;4604;48.616;9.548;2023-07-09T07:51:42;97344.00;;;27.43;48.03
9139;BME280;4604;48.616;9.548;2023-07-09T07:54:09;97342.59;;;27.41;47.93
9139;BME280;4604;48.616;9.548;2023-07-09T07:56:37;97337.53;;;27.44;48.24
9139;BME280;4604;48.616;9.548;2023-07-09T07:59:04;97340.22;;;27.56;48.05
9139;BME280;4604;48.616;9.548;2023-07-09T08:01:30;97333.59;;;27.75;47.36
9139;BME280;4604;48.616;9.548;2023-07-09T08:03:58;97345.50;;;27.63;43.81
9139;BME280;4604;48.616;9.548;2023-07-09T08:06:24;97337.13;;;27.76;43.97
9139;BME280;4604;48.616;9.548;2023-07-09T08:08:51;97343.28;;;27.83;43.79
9139;BME280;4604;48.616;9.548;2023-07-09T08:11:18;97335.94;;;27.95;44.04
9139;BME280;4604;48.616;9.548;2023-07-09T08:13:46;97341.56;;;28.06;43.26
9139;BME280;4604;48.616;9.548;2023-07-09T08:16:12;97340.31;;;28.25;43.03
9139;BME280;4604;48.616;9.548;2023-07-09T08:18:39;97336.69;;;28.20;43.07
9139;BME280;4604;48.616;9.548;2023-07-09T08:21:06;97332.69;;;28.39;43.30
9139;BME280;4604;48.616;9.548;2023-07-09T08:23:34;97325.84;;;28.48;42.84
9139;BME280;4604;48.616;9.548;2023-07-09T08:26:02;97338.09;;;28.68;43.12
9139;BME280;4604;48.616;9.548;2023-07-09T08:28:29;97338.78;;;28.58;42.50
9139;BME280;4604;48.616;9.548;2023-07-09T08:30:57;97343.50;;;28.96;43.30
9139;BME280;4604;48.616;9.548;2023-07-09T08:33:24;97335.25;;;28.91;42.76
9139;BME280;4604;48.616;9.548;2023-07-09T08:35:52;97341.44;;;29.03;42.57
9139;BME280;4604;48.616;9.548;2023-07-09T08:38:19;97335.63;;;29.12;41.92
9139;BME280;4604;48.616;9.548;2023-07-09T08:40:56;97336.91;;;29.09;41.70
9139;BME280;4604;48.616;9.548;2023-07-09T08:43:32;97331.22;;;29.44;40.78
9139;BME280;4604;48.616;9.548;2023-07-09T08:46:12;97321.38;;;29.21;40.88
9139;BME280;4604;48.616;9.548;2023-07-09T08:48:44;97336.13;;;29.48;40.64
9139;BME280;4604;48.616;9.548;2023-07-09T08:51:15;97336.13;;;29.48;40.23
9139;BME280;4604;48.616;9.548;2023-07-09T08:53:48;97344.56;;;29.46;38.98
9139;BME280;4604;48.616;9.548;2023-07-09T08:56:16;97335.69;;;29.34;39.43
9139;BME280;4604;48.616;9.548;2023-07-09T08:58:45;97332.53;;;29.42;38.89
9139;BME280;4604;48.616;9.548;2023-07-09T09:01:18;97337.06;;;29.53;39.56
9139;BME280;4604;48.616;9.548;2023-07-09T09:03:48;97339.56;;;29.77;39.50
9139;BME280;4604;48.616;9.548;2023-07-09T09:06:17;97326.16;;;29.92;39.21
9139;BME280;4604;48.616;9.548;2023-07-09T09:09:02;97339.06;;;30.02;38.45
9139;BME280;4604;48.616;9.548;2023-07-09T09:11:39;97336.78;;;29.94;37.85
9139;BME280;4604;48.616;9.548;2023-07-09T09:14:24;97341.84;;;29.85;37.80
9139;BME280;4604;48.616;9.548;2023-07-09T09:16:55;97340.59;;;29.93;37.73
9139;BME280;4604;48.616;9.548;2023-07-09T09:19:27;97337.91;;;30.20;37.17
9139;BME280;4604;48.616;9.548;2023-07-09T09:21:59;97334.81;;;30.33;36.78
9139;BME280;4604;48.616;9.548;2023-07-09T09:24:31;97337.56;;;30.38;37.10
9139;BME280;4604;48.616;9.548;2023-07-09T09:27:01;97335.75;;;30.44;36.27
9139;BME280;4604;48.616;9.548;2023-07-09T09:29:27;97325.50;;;30.56;36.90
9139;BME280;4604;48.616;9.548;2023-07-09T09:31:57;97335.06;;;30.86;35.93
9139;BME280;4604;48.616;9.548;2023-07-09T09:34:26;97333.00;;;30.71;35.48
9139;BME280;4604;48.616;9.548;2023-07-09T09:36:53;97327.28;;;30.72;36.24
9139;BME280;4604;48.616;9.548;2023-07-09T09:39:22;97324.06;;;30.76;35.36
9139;BME280;4604;48.616;9.548;2023-07-09T09:41:52;97327.78;;;30.97;34.15
9139;BME280;4604;48.616;9.548;2023-07-09T09:44:21;97322.78;;;30.83;33.73
9139;BME280;4604;48.616;9.548;2023-07-09T09:46:50;97331.84;;;30.94;33.83
9139;BME280;4604;48.616;9.548;2023-07-09T09:49:18;97332.78;;;31.42;34.50
9139;BME280;4604;48.616;9.548;2023-07-09T09:51:47;97324.50;;;31.32;33.87
9139;BME280;4604;48.616;9.548;2023-07-09T09:54:18;97334.69;;;31.42;33.86
9139;BME280;4604;48.616;9.548;2023-07-09T09:56:47;97335.56;;;31.52;34.03
9139;BME280;4604;48.616;9.548;2023-07-09T09:59:18;97342.16;;;31.62;33.85
9139;BME280;4604;48.616;9.548;2023-07-09T10:01:45;97334.03;;;31.72;33.68
9139;BME280;4604;48.616;9.548;2023-07-09T10:04:18;97334.38;;;31.86;33.25
9139;BME280;4604;48.616;9.548;2023-07-09T10:06:47;97332.63;;;32.17;32.73
9139;BME280;4604;48.616;9.548;2023-07-09T10:09:21;97329.03;;;32.11;33.14
9139;BME280;4604;48.616;9.548;2023-07-09T10:11:57;97330.19;;;32.31;32.32
9139;BME280;4604;48.616;9.548;2023-07-09T10:14:37;97333.22;;;32.45;32.28
9139;BME280;4604;48.616;9.548;2023-07-09T10:17:18;97321.72;;;32.27;32.24
9139;BME280;4604;48.616;9.548;2023-07-09T10:19:56;97316.50;;;32.20;32.05
9139;BME280;4604;48.616;9.548;2023-07-09T10:22:40;97316.00;;;32.29;30.95
9139;BME280;4604;48.616;9.548;2023-07-09T10:25:16;97315.69;;;32.30;31.83
9139;BME280;4604;48.616;9.548;2023-07-09T10:27:58;97309.34;;;32.04;31.20
9139;BME280;4604;48.616;9.548;2023-07-09T10:30:40;97301.22;;;32.25;32.18
9139;BME280;4604;48.616;9.548;2023-07-09T10:33:11;97301.22;;;32.30;32.13
9139;BME280;4604;48.616;9.548;2023-07-09T10:35:55;97296.00;;;32.23;31.72
9139;BME280;4604;48.616;9.548;2023-07-09T10:38:38;97292.47;;;32.33;31.31
9139;BME280;4604;48.616;9.548;2023-07-09T10:41:11;97293.28;;;32.23;31.90
9139;BME280;4604;48.616;9.548;2023-07-09T10:43:44;97291.97;;;32.46;32.06
9139;BME280;4604;48.616;9.548;2023-07-09T10:46:15;97287.66;;;32.71;31.90
9139;BME280;4604;48.616;9.548;2023-07-09T10:48:44;97287.09;;;32.84;32.27
9139;BME280;4604;48.616;9.548;2023-07-09T10:51:19;97293.66;;;32.98;31.65
9139;BME280;4604;48.616;9.548;2023-07-09T10:53:51;97290.09;;;33.18;32.56
9139;BME280;4604;48.616;9.548;2023-07-09T10:56:26;97283.78;;;33.28;31.80
9139;BME280;4604;48.616;9.548;2023-07-09T10:58:57;97279.66;;;33.46;32.37
9139;BME280;4604;48.616;9.548;2023-07-09T11:01:31;97274.16;;;33.41;32.05
9139;BME280;4604;48.616;9.548;2023-07-09T11:04:02;97267.88;;;33.40;31.05
9139;BME280;4604;48.616;9.548;2023-07-09T11:06:35;97268.94;;;33.50;30.97
9139;BME280;4604;48.616;9.548;2023-07-09T11:09:09;97270.28;;;33.62;30.75
9139;BME280;4604;48.616;9.548;2023-07-09T11:11:41;97264.50;;;33.74;31.02
9139;BME280;4604;48.616;9.548;2023-07-09T11:14:24;97264.47;;;33.79;30.20
9139;BME280;4604;48.616;9.548;2023-07-09T11:16:55;97273.31;;;33.61;29.89
9139;BME280;4604;48.616;9.548;2023-07-09T11:19:22;97278.25;;;33.64;30.22
9139;BME280;4604;48.616;9.548;2023-07-09T11:22:04;97259.81;;;33.85;29.89
9139;BME280;4604;48.616;9.548;2023-07-09T11:24:36;97256.06;;;33.60;30.25
9139;BME280;4604;48.616;9.548;2023-07-09T11:27:22;97264.78;;;33.67;30.28
9139;BME280;4604;48.616;9.548;2023-07-09T11:29:57;97258.25;;;33.63;29.31
9139;BME280;4604;48.616;9.548;2023-07-09T11:32:25;97247.25;;;33.74;29.16
9139;BME280;4604;48.616;9.548;2023-07-09T11:34:52;97257.00;;;33.95;30.14
9139;BME280;4604;48.616;9.548;2023-07-09T11:37:23;97229.59;;;34.00;29.94
9139;BME280;4604;48.616;9.548;2023-07-09T11:39:51;97251.84;;;34.33;29.34
9139;BME280;4604;48.616;9.548;2023-07-09T11:42:30;97245.53;;;34.38;29.22
9139;BME280;4604;48.616;9.548;2023-07-09T11:45:02;97249.09;;;34.38;27.98
9139;BME280;4604;48.616;9.548;2023-07-09T11:47:34;97256.88;;;34.21;27.82
9139;BME280;4604;48.616;9.548;2023-07-09T11:50:05;97239.38;;;34.17;29.13
9139;BME280;4604;48.616;9.548;2023-07-09T11:52:37;97227.19;;;34.33;29.54
9139;BME280;4604;48.616;9.548;2023-07-09T11:55:21;97236.22;;;34.39;29.31
9139;BME280;4604;48.616;9.548;2023-07-09T11:57:49;97235.34;;;34.43;28.17
9139;BME280;4604;48.616;9.548;2023-07-09T12:00:18;97234.41;;;34.19;28.34
9139;BME280;4604;48.616;9.548;2023-07-09T12:02:45;97236.00;;;34.30;28.73
9139;BME280;4604;48.616;9.548;2023-07-09T12:05:13;97235.56;;;34.52;29.19
9139;BME280;4604;48.616;9.548;2023-07-09T12:07:46;97242.25;;;34.75;28.41
9139;BME280;4604;48.616;9.548;2023-07-09T12:10:20;97220.50;;;34.49;27.41
9139;BME280;4604;48.616;9.548;2023-07-09T12:12:48;97219.72;;;34.44;27.66
9139;BME280;4604;48.616;9.548;2023-07-09T12:15:24;97229.34;;;34.76;27.01
9139;BME280;4604;48.616;9.548;2023-07-09T12:17:58;97237.75;;;34.84;27.41
9139;BME280;4604;48.616;9.548;2023-07-09T12:20:25;97234.75;;;34.86;27.30
9139;BME280;4604;48.616;9.548;2023-07-09T12:22:53;97225.94;;;34.55;27.80
9139;BME280;4604;48.616;9.548;2023-07-09T12:25:23;97221.72;;;34.33;26.93
9139;BME280;4604;48.616;9.548;2023-07-09T12:27:50;97219.38;;;34.56;27.49
9139;BME280;4604;48.616;9.548;2023-07-09T12:30:18;97225.59;;;34.66;27.21
9139;BME280;4604;48.616;9.548;2023-07-09T12:32:46;97226.25;;;34.82;27.63
9139;BME280;4604;48.616;9.548;2023-07-09T12:35:15;97227.16;;;34.78;26.68
9139;BME280;4604;48.616;9.548;2023-07-09T12:37:44;97225.41;;;34.87;26.67
9139;BME280;4604;48.616;9.548;2023-07-09T12:40:15;97220.00;;;34.77;26.87
9139;BME280;4604;48.616;9.548;2023-07-09T12:42:43;97223.63;;;34.72;27.28
9139;BME280;4604;48.616;9.548;2023-07-09T12:45:15;97209.56;;;34.79;27.68
9139;BME280;4604;48.616;9.548;2023-07-09T12:47:44;97210.19;;;35.00;28.31
9139;BME280;4604;48.616;9.548;2023-07-09T12:50:18;97205.69;;;35.09;27.20
9139;BME280;4604;48.616;9.548;2023-07-09T12:52:46;97206.91;;;35.27;26.85
9139;BME280;4604;48.616;9.548;2023-07-09T12:55:22;97200.28;;;35.52;26.97
9139;BME280;4604;48.616;9.548;2023-07-09T12:57:50;97193.91;;;35.56;26.89
9139;BME280;4604;48.616;9.548;2023-07-09T13:00:18;97193.53;;;35.68;27.46
9139;BME280;4604;48.616;9.548;2023-07-09T13:02:45;97201.75;;;35.87;27.03
9139;BME280;4604;48.616;9.548;2023-07-09T13:05:19;97201.56;;;36.03;26.17
9139;BME280;4604;48.616;9.548;2023-07-09T13:07:49;97198.69;;;36.13;26.34
9139;BME280;4604;48.616;9.548;2023-07-09T13:10:18;97193.44;;;36.30;26.20
9139;BME280;4604;48.616;9.548;2023-07-09T13:12:48;97185.94;;;36.36;25.35
9139;BME280;4604;48.616;9.548;2023-07-09T13:15:27;97186.84;;;36.31;25.60
9139;BME280;4604;48.616;9.548;2023-07-09T13:18:02;97185.38;;;36.53;25.93
9139;BME280;4604;48.616;9.548;2023-07-09T13:20:31;97179.59;;;36.54;25.83
9139;BME280;4604;48.616;9.548;2023-07-09T13:22:58;97184.28;;;36.54;24.97
9139;BME280;4604;48.616;9.548;2023-07-09T13:25:25;97176.91;;;36.68;25.72
9139;BME280;4604;48.616;9.548;2023-07-09T13:27:54;97178.00;;;36.67;25.07
9139;BME280;4604;48.616;9.548;2023-07-09T13:30:21;97170.06;;;36.66;24.00
9139;BME280;4604;48.616;9.548;2023-07-09T13:32:48;97177.75;;;36.82;24.98
9139;BME280;4604;48.616;9.548;2023-07-09T13:35:17;97175.47;;;36.71;23.60